sensor_id;sensor_type;location;lat;lon;timestamp;P1;durP1;ratioP1;P2;durP2;ratioP2
29218;SDS011;16421;50.202;7.852;2022-10-16T00:02:24;1.70;;;0.60;;
29218;SDS011;16421;50.202;7.852;2022-10-16T00:07:27;2.08;;;1.10;;
29218;SDS011;16421;50.202;7.852;2022-10-16T00:12:31;0.50;;;0.40;;
29218;SDS011;16421;50.202;7.852;2022-10-16T00:17:35;1.02;;;0.50;;
29218;SDS011;16421;50.202;7.852;2022-10-16T00:22:39;0.82;;;0.57;;
29218;SDS011;16421;50.202;7.852;2022-10-16T00:27:42;0.60;;;0.38;;
29218;SDS011;16421;50.202;7.852;2022-10-16T00:32:47;1.85;;;0.40;;
29218;SDS011;16421;50.202;7.852;2022-10-16T00:37:51;1.20;;;0.30;;
29218;SDS011;16421;50.202;7.852;2022-10-16T00:42:54;0.63;;;0.25;;
29218;SDS011;16421;50.202;7.852;2022-10-16T00:47:59;0.32;;;0.22;;
29218;SDS011;16421;50.202;7.852;2022-10-16T00:53:02;0.20;;;0.20;;
29218;SDS011;16421;50.202;7.852;2022-10-16T00:58:06;0.35;;;0.20;;
29218;SDS011;16421;50.202;7.852;2022-10-16T01:03:23;0.55;;;0.30;;
29218;SDS011;16421;50.202;7.852;2022-10-16T01:08:30;0.95;;;0.10;;
29218;SDS011;16421;50.202;7.852;2022-10-16T01:13:42;0.60;;;0.10;;
29218;SDS011;16421;50.202;7.852;2022-10-16T01:18:52;0.20;;;0.10;;
29218;SDS011;16421;50.202;7.852;2022-10-16T01:24:01;0.68;;;0.20;;
29218;SDS011;16421;50.202;7.852;2022-10-16T01:29:12;0.17;;;0.17;;
29218;SDS011;16421;50.202;7.852;2022-10-16T01:34:21;0.35;;;0.10;;
29218;SDS011;16421;50.202;7.852;2022-10-16T01:39:31;0.90;;;0.20;;
29218;SDS011;16421;50.202;7.852;2022-10-16T01:44:38;0.40;;;0.20;;
29218;SDS011;16421;50.202;7.852;2022-10-16T01:49:44;0.30;;;0.17;;
29218;SDS011;16421;50.202;7.852;2022-10-16T01:54:49;0.50;;;0.20;;
29218;SDS011;16421;50.202;7.852;2022-10-16T01:59:58;0.20;;;0.20;;
29218;SDS011;16421;50.202;7.852;2022-10-16T02:05:13;0.30;;;0.30;;
29218;SDS011;16421;50.202;7.852;2022-10-16T02:10:21;1.45;;;0.20;;
29218;SDS011;16421;50.202;7.852;2022-10-16T02:15:27;0.28;;;0.20;;
29218;SDS011;16421;50.202;7.852;2022-10-16T02:20:33;0.30;;;0.30;;
29218;SDS011;16421;50.202;7.852;2022-10-16T02:25:41;0.20;;;0.20;;
29218;SDS011;16421;50.202;7.852;2022-10-16T02:30:48;0.20;;;0.20;;
29218;SDS011;16421;50.202;7.852;2022-10-16T02:35:58;0.30;;;0.30;;
29218;SDS011;16421;50.202;7.852;2022-10-16T02:41:02;0.45;;;0.15;;
29218;SDS011;16421;50.202;7.852;2022-10-16T02:46:07;0.20;;;0.20;;
29218;SDS011;16421;50.202;7.852;2022-10-16T02:51:11;0.10;;;0.10;;
29218;SDS011;16421;50.202;7.852;2022-10-16T02:56:14;0.20;;;0.20;;
29218;SDS011;16421;50.202;7.852;2022-10-16T03:01:24;0.10;;;0.10;;
29218;SDS011;16421;50.202;7.852;2022-10-16T03:06:28;1.15;;;0.20;;
29218;SDS011;16421;50.202;7.852;2022-10-16T03:11:31;0.80;;;0.15;;
29218;SDS011;16421;50.202;7.852;2022-10-16T03:16:36;0.20;;;0.10;;
29218;SDS011;16421;50.202;7.852;2022-10-16T03:21:39;0.47;;;0.13;;
29218;SDS011;16421;50.202;7.852;2022-10-16T03:26:42;0.73;;;0.20;;
29218;SDS011;16421;50.202;7.852;2022-10-16T03:31:47;1.80;;;0.20;;
29218;SDS011;16421;50.202;7.852;2022-10-16T03:36:51;0.20;;;0.20;;
29218;SDS011;16421;50.202;7.852;2022-10-16T03:41:54;0.28;;;0.20;;
29218;SDS011;16421;50.202;7.852;2022-10-16T03:46:59;0.10;;;0.10;;
29218;SDS011;16421;50.202;7.852;2022-10-16T03:52:03;1.02;;;0.20;;
29218;SDS011;16421;50.202;7.852;2022-10-16T03:57:06;1.27;;;0.20;;
29218;SDS011;16421;50.202;7.852;2022-10-16T04:02:14;0.20;;;0.20;;
29218;SDS011;16421;50.202;7.852;2022-10-16T04:07:17;0.40;;;0.15;;
29218;SDS011;16421;50.202;7.852;2022-10-16T04:12:20;0.45;;;0.20;;
29218;SDS011;16421;50.202;7.852;2022-10-16T04:17:25;0.10;;;0.10;;
29218;SDS011;16421;50.202;7.852;2022-10-16T04:22:28;0.50;;;0.10;;
29218;SDS011;16421;50.202;7.852;2022-10-16T04:27:32;2.45;;;0.10;;
29218;SDS011;16421;50.202;7.852;2022-10-16T04:32:36;0.20;;;0.10;;
29218;SDS011;16421;50.202;7.852;2022-10-16T04:37:40;0.10;;;0.10;;
29218;SDS011;16421;50.202;7.852;2022-10-16T04:42:43;0.17;;;0.10;;
29218;SDS011;16421;50.202;7.852;2022-10-16T04:47:48;0.35;;;0.17;;
29218;SDS011;16421;50.202;7.852;2022-10-16T04:52:51;0.65;;;0.20;;
29218;SDS011;16421;50.202;7.852;2022-10-16T04:57:54;0.20;;;0.20;;
29218;SDS011;16421;50.202;7.852;2022-10-16T05:02:59;0.45;;;0.13;;
29218;SDS011;16421;50.202;7.852;2022-10-16T05:08:07;0.20;;;0.20;;
29218;SDS011;16421;50.202;7.852;2022-10-16T05:13:10;0.63;;;0.20;;
29218;SDS011;16421;50.202;7.852;2022-10-16T05:18:15;0.50;;;0.40;;
29218;SDS011;16421;50.202;7.852;2022-10-16T05:23:19;0.30;;;0.30;;
29218;SDS011;16421;50.202;7.852;2022-10-16T05:28:25;0.40;;;0.40;;
29218;SDS011;16421;50.202;7.852;2022-10-16T05:33:31;0.63;;;0.38;;
29218;SDS011;16421;50.202;7.852;2022-10-16T05:38:34;0.32;;;0.30;;
29218;SDS011;16421;50.202;7.852;2022-10-16T05:43:38;0.20;;;0.20;;
29218;SDS011;16421;50.202;7.852;2022-10-16T05:48:43;0.30;;;0.22;;
29218;SDS011;16421;50.202;7.852;2022-10-16T05:53:46;0.20;;;0.20;;
29218;SDS011;16421;50.202;7.852;2022-10-16T05:58:50;0.65;;;0.20;;
29218;SDS011;16421;50.202;7.852;2022-10-16T06:03:54;2.78;;;0.40;;
29218;SDS011;16421;50.202;7.852;2022-10-16T06:08:58;0.30;;;0.30;;
29218;SDS011;16421;50.202;7.852;2022-10-16T06:14:01;0.85;;;0.32;;
29218;SDS011;16421;50.202;7.852;2022-10-16T06:19:09;0.17;;;0.17;;
29218;SDS011;16421;50.202;7.852;2022-10-16T06:24:12;0.85;;;0.20;;
29218;SDS011;16421;50.202;7.852;2022-10-16T06:29:16;0.50;;;0.20;;
29218;SDS011;16421;50.202;7.852;2022-10-16T06:34:21;0.30;;;0.22;;
29218;SDS011;16421;50.202;7.852;2022-10-16T06:39:24;0.30;;;0.20;;
29218;SDS011;16421;50.202;7.852;2022-10-16T06:44:28;0.50;;;0.28;;
29218;SDS011;16421;50.202;7.852;2022-10-16T06:49:32;0.30;;;0.30;;
29218;SDS011;16421;50.202;7.852;2022-10-16T06:54:36;0.50;;;0.30;;
29218;SDS011;16421;50.202;7.852;2022-10-16T06:59:42;0.40;;;0.30;;
29218;SDS011;16421;50.202;7.852;2022-10-16T07:04:48;0.30;;;0.30;;
29218;SDS011;16421;50.202;7.852;2022-10-16T07:09:51;0.40;;;0.35;;
29218;SDS011;16421;50.202;7.852;2022-10-16T07:14:55;0.47;;;0.38;;
29218;SDS011;16421;50.202;7.852;2022-10-16T07:19:59;0.55;;;0.55;;
29218;SDS011;16421;50.202;7.852;2022-10-16T07:25:03;0.93;;;0.43;;
29218;SDS011;16421;50.202;7.852;2022-10-16T07:30:08;0.40;;;0.40;;
29218;SDS011;16421;50.202;7.852;2022-10-16T07:35:13;0.50;;;0.40;;
29218;SDS011;16421;50.202;7.852;2022-10-16T07:40:16;0.40;;;0.40;;
29218;SDS011;16421;50.202;7.852;2022-10-16T07:45:20;0.85;;;0.40;;
29218;SDS011;16421;50.202;7.852;2022-10-16T07:50:24;0.40;;;0.30;;
29218;SDS011;16421;50.202;7.852;2022-10-16T07:55:28;0.20;;;0.20;;
29218;SDS011;16421;50.202;7.852;2022-10-16T08:00:31;0.20;;;0.20;;
29218;SDS011;16421;50.202;7.852;2022-10-16T08:05:37;0.40;;;0.40;;
29218;SDS011;16421;50.202;7.852;2022-10-16T08:10:40;0.30;;;0.30;;
29218;SDS011;16421;50.202;7.852;2022-10-16T08:15:43;1.45;;;0.30;;
29218;SDS011;16421;50.202;7.852;2022-10-16T08:20:54;0.30;;;0.30;;
29218;SDS011;16421;50.202;7.852;2022-10-16T08:26:01;1.42;;;0.77;;
29218;SDS011;16421;50.202;7.852;2022-10-16T08:31:06;0.25;;;0.20;;
29218;SDS011;16421;50.202;7.852;2022-10-16T08:36:12;0.55;;;0.28;;
29218;SDS011;16421;50.202;7.852;2022-10-16T08:46:59;0.17;;;0.17;;
29218;SDS011;16421;50.202;7.852;2022-10-16T08:52:11;0.25;;;0.25;;
29218;SDS011;16421;50.202;7.852;2022-10-16T08:57:16;0.68;;;0.30;;
29218;SDS011;16421;50.202;7.852;2022-10-16T09:02:25;0.28;;;0.20;;
29218;SDS011;16421;50.202;7.852;2022-10-16T09:07:35;0.20;;;0.20;;
29218;SDS011;16421;50.202;7.852;2022-10-16T09:12:47;0.73;;;0.30;;
29218;SDS011;16421;50.202;7.852;2022-10-16T09:18:04;0.25;;;0.20;;
29218;SDS011;16421;50.202;7.852;2022-10-16T09:23:17;0.40;;;0.30;;
29218;SDS011;16421;50.202;7.852;2022-10-16T09:28:21;0.13;;;0.13;;
29218;SDS011;16421;50.202;7.852;2022-10-16T09:33:27;0.60;;;0.35;;
29218;SDS011;16421;50.202;7.852;2022-10-16T09:38:36;1.30;;;0.50;;
29218;SDS011;16421;50.202;7.852;2022-10-16T09:43:41;0.68;;;0.40;;
29218;SDS011;16421;50.202;7.852;2022-10-16T09:48:50;1.00;;;0.55;;
29218;SDS011;16421;50.202;7.852;2022-10-16T09:53:57;0.80;;;0.50;;
29218;SDS011;16421;50.202;7.852;2022-10-16T09:59:08;0.30;;;0.30;;
29218;SDS011;16421;50.202;7.852;2022-10-16T10:04:13;0.20;;;0.10;;
29218;SDS011;16421;50.202;7.852;2022-10-16T10:09:19;0.10;;;0.10;;
29218;SDS011;16421;50.202;7.852;2022-10-16T10:14:25;1.52;;;0.30;;
29218;SDS011;16421;50.202;7.852;2022-10-16T10:19:37;0.57;;;0.22;;
29218;SDS011;16421;50.202;7.852;2022-10-16T10:24:43;0.38;;;0.30;;
29218;SDS011;16421;50.202;7.852;2022-10-16T10:29:47;0.57;;;0.10;;
29218;SDS011;16421;50.202;7.852;2022-10-16T10:35:04;0.28;;;0.20;;
29218;SDS011;16421;50.202;7.852;2022-10-16T10:40:18;0.10;;;0.10;;
29218;SDS011;16421;50.202;7.852;2022-10-16T10:45:36;0.15;;;0.03;;
29218;SDS011;16421;50.202;7.852;2022-10-16T10:50:45;0.08;;;0.00;;
29218;SDS011;16421;50.202;7.852;2022-10-16T10:55:57;0.10;;;0.10;;
29218;SDS011;16421;50.202;7.852;2022-10-16T11:01:07;0.00;;;0.00;;
29218;SDS011;16421;50.202;7.852;2022-10-16T11:06:14;1.20;;;0.10;;
29218;SDS011;16421;50.202;7.852;2022-10-16T11:11:22;0.40;;;0.10;;
29218;SDS011;16421;50.202;7.852;2022-10-16T11:16:30;0.00;;;0.00;;
29218;SDS011;16421;50.202;7.852;2022-10-16T11:21:37;0.50;;;0.13;;
29218;SDS011;16421;50.202;7.852;2022-10-16T11:26:47;0.10;;;0.10;;
29218;SDS011;16421;50.202;7.852;2022-10-16T11:31:52;0.00;;;0.00;;
29218;SDS011;16421;50.202;7.852;2022-10-16T11:37:01;0.08;;;0.08;;
29218;SDS011;16421;50.202;7.852;2022-10-16T11:42:09;0.00;;;0.00;;
29218;SDS011;16421;50.202;7.852;2022-10-16T11:47:20;0.28;;;0.20;;
29218;SDS011;16421;50.202;7.852;2022-10-16T11:52:51;0.10;;;0.10;;
29218;SDS011;16421;50.202;7.852;2022-10-16T11:57:59;0.25;;;0.10;;
29218;SDS011;16421;50.202;7.852;2022-10-16T12:03:11;0.77;;;0.20;;
29218;SDS011;16421;50.202;7.852;2022-10-16T12:08:20;0.25;;;0.20;;
29218;SDS011;16421;50.202;7.852;2022-10-16T12:13:32;0.10;;;0.10;;
29218;SDS011;16421;50.202;7.852;2022-10-16T12:18:36;0.30;;;0.30;;
29218;SDS011;16421;50.202;7.852;2022-10-16T12:23:46;0.40;;;0.20;;
29218;SDS011;16421;50.202;7.852;2022-10-16T12:28:52;0.10;;;0.10;;
29218;SDS011;16421;50.202;7.852;2022-10-16T12:33:57;0.20;;;0.20;;
29218;SDS011;16421;50.202;7.852;2022-10-16T12:39:02;0.20;;;0.20;;
29218;SDS011;16421;50.202;7.852;2022-10-16T12:49:37;0.35;;;0.20;;
29218;SDS011;16421;50.202;7.852;2022-10-16T12:54:50;0.13;;;0.13;;
29218;SDS011;16421;50.202;7.852;2022-10-16T12:59:55;0.38;;;0.30;;
29218;SDS011;16421;50.202;7.852;2022-10-16T13:05:17;0.40;;;0.40;;
29218;SDS011;16421;50.202;7.852;2022-10-16T13:10:28;2.92;;;0.40;;
29218;SDS011;16421;50.202;7.852;2022-10-16T13:15:41;0.50;;;0.50;;
29218;SDS011;16421;50.202;7.852;2022-10-16T13:21:02;0.60;;;0.60;;
29218;SDS011;16421;50.202;7.852;2022-10-16T13:26:15;1.70;;;0.80;;
29218;SDS011;16421;50.202;7.852;2022-10-16T13:31:25;1.60;;;0.70;;
29218;SDS011;16421;50.202;7.852;2022-10-16T13:36:34;0.80;;;0.63;;
29218;SDS011;16421;50.202;7.852;2022-10-16T13:41:44;0.50;;;0.38;;
29218;SDS011;16421;50.202;7.852;2022-10-16T13:46:57;0.35;;;0.35;;
29218;SDS011;16421;50.202;7.852;2022-10-16T13:52:02;0.40;;;0.40;;
29218;SDS011;16421;50.202;7.852;2022-10-16T13:57:06;0.50;;;0.43;;
29218;SDS011;16421;50.202;7.852;2022-10-16T14:02:25;0.95;;;0.40;;
29218;SDS011;16421;50.202;7.852;2022-10-16T14:07:32;0.40;;;0.40;;
29218;SDS011;16421;50.202;7.852;2022-10-16T14:12:36;0.40;;;0.40;;
29218;SDS011;16421;50.202;7.852;2022-10-16T14:17:42;0.45;;;0.45;;
29218;SDS011;16421;50.202;7.852;2022-10-16T14:22:57;0.60;;;0.45;;
29218;SDS011;16421;50.202;7.852;2022-10-16T14:28:03;0.50;;;0.30;;
29218;SDS011;16421;50.202;7.852;2022-10-16T14:33:23;0.40;;;0.40;;
29218;SDS011;16421;50.202;7.852;2022-10-16T14:38:35;0.30;;;0.30;;
29218;SDS011;16421;50.202;7.852;2022-10-16T14:43:41;1.23;;;0.50;;
29218;SDS011;16421;50.202;7.852;2022-10-16T14:48:48;0.40;;;0.40;;
29218;SDS011;16421;50.202;7.852;2022-10-16T14:53:54;0.63;;;0.20;;
29218;SDS011;16421;50.202;7.852;2022-10-16T14:59:00;0.30;;;0.30;;
29218;SDS011;16421;50.202;7.852;2022-10-16T15:04:04;0.20;;;0.20;;
29218;SDS011;16421;50.202;7.852;2022-10-16T15:09:11;1.73;;;0.40;;
29218;SDS011;16421;50.202;7.852;2022-10-16T15:14:14;0.30;;;0.30;;
29218;SDS011;16421;50.202;7.852;2022-10-16T15:19:17;0.30;;;0.28;;
29218;SDS011;16421;50.202;7.852;2022-10-16T15:24:22;0.65;;;0.60;;
29218;SDS011;16421;50.202;7.852;2022-10-16T15:29:25;0.57;;;0.55;;
29218;SDS011;16421;50.202;7.852;2022-10-16T15:34:29;0.60;;;0.50;;
29218;SDS011;16421;50.202;7.852;2022-10-16T15:39:33;0.77;;;0.68;;
29218;SDS011;16421;50.202;7.852;2022-10-16T15:44:37;2.10;;;1.00;;
29218;SDS011;16421;50.202;7.852;2022-10-16T15:49:41;0.63;;;0.60;;
29218;SDS011;16421;50.202;7.852;2022-10-16T15:54:46;0.73;;;0.73;;
29218;SDS011;16421;50.202;7.852;2022-10-16T15:59:50;1.10;;;0.60;;
29218;SDS011;16421;50.202;7.852;2022-10-16T16:04:54;1.02;;;0.70;;
29218;SDS011;16421;50.202;7.852;2022-10-16T16:09:58;1.40;;;0.77;;
29218;SDS011;16421;50.202;7.852;2022-10-16T16:15:02;0.90;;;0.60;;
29218;SDS011;16421;50.202;7.852;2022-10-16T16:20:07;0.90;;;0.70;;
29218;SDS011;16421;50.202;7.852;2022-10-16T16:25:13;0.68;;;0.68;;
29218;SDS011;16421;50.202;7.852;2022-10-16T16:30:16;1.10;;;1.00;;
29218;SDS011;16421;50.202;7.852;2022-10-16T16:35:23;1.90;;;1.20;;
29218;SDS011;16421;50.202;7.852;2022-10-16T16:40:27;1.77;;;1.40;;
29218;SDS011;16421;50.202;7.852;2022-10-16T16:50:37;2.45;;;0.80;;
29218;SDS011;16421;50.202;7.852;2022-10-16T16:55:42;1.52;;;1.02;;
29218;SDS011;16421;50.202;7.852;2022-10-16T17:00:46;1.33;;;1.23;;
29218;SDS011;16421;50.202;7.852;2022-10-16T17:05:55;1.10;;;1.00;;
29218;SDS011;16421;50.202;7.852;2022-10-16T17:11:00;1.80;;;1.27;;
29218;SDS011;16421;50.202;7.852;2022-10-16T17:16:04;2.08;;;1.42;;
29218;SDS011;16421;50.202;7.852;2022-10-16T17:21:08;3.00;;;1.60;;
29218;SDS011;16421;50.202;7.852;2022-10-16T17:26:14;3.45;;;1.60;;
29218;SDS011;16421;50.202;7.852;2022-10-16T17:31:20;1.63;;;1.13;;
29218;SDS011;16421;50.202;7.852;2022-10-16T17:36:25;1.48;;;1.20;;
29218;SDS011;16421;50.202;7.852;2022-10-16T17:41:31;2.38;;;1.58;;
29218;SDS011;16421;50.202;7.852;2022-10-16T17:46:36;1.40;;;1.20;;
29218;SDS011;16421;50.202;7.852;2022-10-16T17:51:40;3.53;;;1.13;;
29218;SDS011;16421;50.202;7.852;2022-10-16T17:56:44;2.70;;;1.17;;
29218;SDS011;16421;50.202;7.852;2022-10-16T18:01:49;1.60;;;1.40;;
29218;SDS011;16421;50.202;7.852;2022-10-16T18:06:52;1.10;;;1.00;;
29218;SDS011;16421;50.202;7.852;2022-10-16T18:11:58;1.63;;;0.95;;
29218;SDS011;16421;50.202;7.852;2022-10-16T18:17:01;1.38;;;0.85;;
29218;SDS011;16421;50.202;7.852;2022-10-16T18:22:04;3.17;;;1.00;;
29218;SDS011;16421;50.202;7.852;2022-10-16T18:27:09;3.03;;;1.08;;
29218;SDS011;16421;50.202;7.852;2022-10-16T18:32:13;1.45;;;1.02;;
29218;SDS011;16421;50.202;7.852;2022-10-16T18:37:16;4.10;;;1.33;;
29218;SDS011;16421;50.202;7.852;2022-10-16T18:42:21;1.77;;;1.25;;
29218;SDS011;16421;50.202;7.852;2022-10-16T18:47:25;3.15;;;1.40;;
29218;SDS011;16421;50.202;7.852;2022-10-16T18:52:30;2.87;;;1.37;;
29218;SDS011;16421;50.202;7.852;2022-10-16T18:57:35;3.13;;;1.35;;
29218;SDS011;16421;50.202;7.852;2022-10-16T19:02:38;2.78;;;1.05;;
29218;SDS011;16421;50.202;7.852;2022-10-16T19:07:43;1.80;;;0.88;;
29218;SDS011;16421;50.202;7.852;2022-10-16T19:12:49;3.17;;;1.20;;
29218;SDS011;16421;50.202;7.852;2022-10-16T19:17:53;5.85;;;5.00;;
29218;SDS011;16421;50.202;7.852;2022-10-16T19:22:56;6.20;;;4.25;;
29218;SDS011;16421;50.202;7.852;2022-10-16T19:28:01;3.22;;;2.60;;
29218;SDS011;16421;50.202;7.852;2022-10-16T19:33:07;4.95;;;2.40;;
29218;SDS011;16421;50.202;7.852;2022-10-16T19:38:11;4.50;;;2.08;;
29218;SDS011;16421;50.202;7.852;2022-10-16T19:43:15;4.53;;;1.98;;
29218;SDS011;16421;50.202;7.852;2022-10-16T19:48:19;2.83;;;1.88;;
29218;SDS011;16421;50.202;7.852;2022-10-16T19:53:28;2.97;;;1.80;;
29218;SDS011;16421;50.202;7.852;2022-10-16T19:58:34;2.17;;;1.88;;
29218;SDS011;16421;50.202;7.852;2022-10-16T20:03:37;2.42;;;2.00;;
29218;SDS011;16421;50.202;7.852;2022-10-16T20:08:41;1.70;;;1.60;;
29218;SDS011;16421;50.202;7.852;2022-10-16T20:13:47;2.30;;;1.88;;
29218;SDS011;16421;50.202;7.852;2022-10-16T20:18:51;1.60;;;1.48;;
29218;SDS011;16421;50.202;7.852;2022-10-16T20:23:55;2.20;;;1.77;;
29218;SDS011;16421;50.202;7.852;2022-10-16T20:29:00;1.70;;;1.60;;
29218;SDS011;16421;50.202;7.852;2022-10-16T20:34:04;1.95;;;1.33;;
29218;SDS011;16421;50.202;7.852;2022-10-16T20:39:09;2.35;;;1.73;;
29218;SDS011;16421;50.202;7.852;2022-10-16T20:44:15;2.67;;;1.50;;
29218;SDS011;16421;50.202;7.852;2022-10-16T20:49:18;1.60;;;1.50;;
29218;SDS011;16421;50.202;7.852;2022-10-16T20:54:29;2.72;;;1.65;;
29218;SDS011;16421;50.202;7.852;2022-10-16T20:59:33;1.50;;;1.38;;
29218;SDS011;16421;50.202;7.852;2022-10-16T21:04:37;2.13;;;1.60;;
29218;SDS011;16421;50.202;7.852;2022-10-16T21:09:40;1.83;;;1.30;;
29218;SDS011;16421;50.202;7.852;2022-10-16T21:14:45;3.08;;;1.20;;
29218;SDS011;16421;50.202;7.852;2022-10-16T21:20:03;0.93;;;0.82;;
29218;SDS011;16421;50.202;7.852;2022-10-16T21:25:07;0.93;;;0.70;;
29218;SDS011;16421;50.202;7.852;2022-10-16T21:30:12;2.05;;;0.90;;
29218;SDS011;16421;50.202;7.852;2022-10-16T21:35:15;1.35;;;0.75;;
29218;SDS011;16421;50.202;7.852;2022-10-16T21:40:18;2.05;;;0.63;;
29218;SDS011;16421;50.202;7.852;2022-10-16T21:45:23;2.60;;;1.10;;
29218;SDS011;16421;50.202;7.852;2022-10-16T21:50:26;1.42;;;0.95;;
29218;SDS011;16421;50.202;7.852;2022-10-16T21:55:34;1.45;;;1.13;;
29218;SDS011;16421;50.202;7.852;2022-10-16T22:00:39;2.13;;;0.93;;
29218;SDS011;16421;50.202;7.852;2022-10-16T22:05:42;1.60;;;0.90;;
29218;SDS011;16421;50.202;7.852;2022-10-16T22:10:45;1.23;;;1.13;;
29218;SDS011;16421;50.202;7.852;2022-10-16T22:15:50;1.40;;;0.95;;
29218;SDS011;16421;50.202;7.852;2022-10-16T22:20:53;1.30;;;0.88;;
29218;SDS011;16421;50.202;7.852;2022-10-16T22:25:57;0.85;;;0.80;;
29218;SDS011;16421;50.202;7.852;2022-10-16T22:31:03;0.90;;;0.68;;
29218;SDS011;16421;50.202;7.852;2022-10-16T22:36:09;0.98;;;0.77;;
29218;SDS011;16421;50.202;7.852;2022-10-16T22:41:13;1.90;;;0.73;;
29218;SDS011;16421;50.202;7.852;2022-10-16T22:46:19;0.80;;;0.70;;
29218;SDS011;16421;50.202;7.852;2022-10-16T22:51:24;0.82;;;0.82;;
29218;SDS011;16421;50.202;7.852;2022-10-16T22:56:28;0.73;;;0.63;;
29218;SDS011;16421;50.202;7.852;2022-10-16T23:01:34;2.33;;;1.10;;
29218;SDS011;16421;50.202;7.852;2022-10-16T23:06:39;1.90;;;0.82;;
29218;SDS011;16421;50.202;7.852;2022-10-16T23:11:42;1.23;;;0.50;;
29218;SDS011;16421;50.202;7.852;2022-10-16T23:16:47;1.30;;;0.80;;
29218;SDS011;16421;50.202;7.852;2022-10-16T23:21:50;0.90;;;0.90;;
29218;SDS011;16421;50.202;7.852;2022-10-16T23:26:54;0.90;;;0.73;;
29218;SDS011;16421;50.202;7.852;2022-10-16T23:31:58;2.40;;;0.75;;
29218;SDS011;16421;50.202;7.852;2022-10-16T23:37:02;1.13;;;0.68;;
29218;SDS011;16421;50.202;7.852;2022-10-16T23:42:06;0.68;;;0.60;;
29218;SDS011;16421;50.202;7.852;2022-10-16T23:47:11;1.00;;;0.70;;
29218;SDS011;16421;50.202;7.852;2022-10-16T23:52:14;0.80;;;0.63;;
29218;SDS011;16421;50.202;7.852;2022-10-16T23:57:18;1.02;;;0.60;;
